LFKJ Airport Information

Runway Information
Runway 02 Length 7897 ft width 148 ft
Elevation 15 ft Threshold ft Heading 25
Runway 20 Length 7897 ft Width 148 ft
Elevation 18 ft Threshold 744 ft Heading 205
Airport Frequencies
Type AFIS Name AFIS Frequency 119.825 MHZ
Type APP Name AJACCIO AP Frequency 121.05 MHZ
Type ATIS Name AJACCIO AT Frequency 126.925 MHZ
Type GND Name AJACCIO GN Frequency 121.7 MHZ
Type TWR Name AJACCIO TW Frequency 118.075 MHZ
Airport Navaids
Type NDB Name Ajaccio/Campo Dell Oro Frequency 341 KHZ
Airport Weather Information & NOTAM
ADDS - METARS form results

(1155 UTC 06 February 2023)
Data provider http://aviationweather.gov/metar/data/
 
METAR text: LFKJ 061130Z AUTO VRB03KT CAVOK 15/M10 Q1026 NOSIG
Conditions at: LFKJ (AJACCIO/CAMPO OR, FR) observed 1130 UTC 06 February 2023
Temperature: 15.0°C (59°F)
Dewpoint: -10.0°C (14°F) [RH = 17%]
Pressure (altimeter): 30.30 inches Hg (1026.0 mb)
Winds: variable direction winds at 3 MPH (3 knots; 1.5 m/s)
Visibility: 6 or more miles (10+ km)
Ceiling: ceiling and visibility are OK
Clouds: unknown
Weather: no significant weather observed at this time

METAR text: LFKJ 061100Z AUTO 32002KT CAVOK 14/M07 Q1026 BECMG 23010KT
Conditions at: LFKJ (AJACCIO/CAMPO OR, FR) observed 1100 UTC 06 February 2023
Temperature: 14.0°C (57°F)
Dewpoint: -7.0°C (19°F) [RH = 23%]
Pressure (altimeter): 30.30 inches Hg (1026.0 mb)
Winds: from the NW (320 degrees) at 2 MPH (2 knots; 1.0 m/s)
Visibility: 6 or more miles (10+ km)
Ceiling: ceiling and visibility are OK
Clouds: unknown
Weather: no significant weather observed at this time

Forecast for: LFKJ (AJACCIO/CAMPO OR, FR)
Text: TAF LFKJ 060800Z 0609/0709 02010KT 9999 FEW040
Forecast period: 0900 UTC 06 February 2023 to 0900 UTC 07 February 2023
Forecast type: FROM: standard forecast or significant change
Winds: from the NNE (20 degrees) at 12 MPH (10 knots; 5.1 m/s)
Visibility: 6 or more miles (10+ km)
Ceiling: at least 12,000 feet AGL
Clouds: few clouds at 4000 feet AGL
Weather: no significant weather forecast for this period
Text: BECMG 0609/0610 23010KT
Forecast period: 0900 to 1600 UTC 06 February 2023
Forecast type: BECOMING: Conditions expected to become as follows by 1000 UTC 06 February 2023
Winds: from the SW (230 degrees) at 12 MPH (10 knots; 5.1 m/s)
Visibility: 6 or more miles (10+ km)
Ceiling: at least 12,000 feet AGL
Clouds: few clouds at 4000 feet AGL
Weather: no significant weather forecast for this period
Text: BECMG 0616/0618 05005KT
Forecast period: 1600 UTC 06 February 2023 to 0900 UTC 07 February 2023
Forecast type: BECOMING: Conditions expected to become as follows by 1800 UTC 06 February 2023
Winds: from the NE (50 degrees) at 6 MPH (5 knots; 2.6 m/s)
Visibility: 6 or more miles (10+ km)
Ceiling: at least 12,000 feet AGL
Clouds: few clouds at 4000 feet AGL
Weather: no significant weather forecast for this period